createdAt,value
2022-11-16T00:01:47.824Z,2.20
2022-11-16T00:04:15.120Z,2.10
2022-11-16T00:06:42.362Z,2.10
2022-11-16T00:09:23.696Z,2.10
2022-11-16T00:11:52.999Z,2.10
2022-11-16T00:14:21.284Z,2.00
2022-11-16T00:16:48.831Z,2.10
2022-11-16T00:19:15.980Z,2.00
2022-11-16T00:21:43.230Z,2.00
2022-11-16T00:24:15.799Z,2.00
2022-11-16T00:26:43.682Z,2.00
2022-11-16T00:29:22.602Z,2.00
2022-11-16T00:31:50.760Z,2.00
2022-11-16T00:34:18.685Z,2.00
2022-11-16T00:36:47.069Z,2.00
2022-11-16T00:39:15.831Z,2.00
2022-11-16T00:41:44.223Z,2.00
2022-11-16T00:44:11.909Z,2.00
2022-11-16T00:46:39.539Z,2.10
2022-11-16T00:49:07.056Z,2.10
2022-11-16T00:51:35.783Z,2.10
2022-11-16T00:54:04.441Z,2.10
2022-11-16T00:56:31.716Z,2.10
2022-11-16T00:58:58.884Z,2.00
2022-11-16T01:01:26.152Z,2.00
2022-11-16T01:03:53.478Z,2.00
2022-11-16T01:06:20.970Z,1.90
2022-11-16T01:08:48.417Z,1.80
2022-11-16T01:11:35.888Z,1.70
2022-11-16T01:14:05.538Z,1.70
2022-11-16T01:16:32.764Z,1.80
2022-11-16T01:18:59.894Z,1.80
2022-11-16T01:21:27.039Z,1.90
2022-11-16T01:23:55.902Z,1.90
2022-11-16T01:26:23.440Z,1.90
2022-11-16T01:28:50.576Z,1.80
2022-11-16T01:31:18.049Z,1.80
2022-11-16T01:33:45.341Z,1.80
2022-11-16T01:36:14.995Z,1.80
2022-11-16T01:38:47.448Z,1.80
2022-11-16T01:41:21.052Z,1.90
2022-11-16T01:43:58.000Z,1.90
2022-11-16T01:46:26.049Z,1.80
2022-11-16T01:49:14.605Z,1.80
2022-11-16T01:51:46.479Z,1.70
2022-11-16T01:54:14.439Z,1.70
2022-11-16T01:56:43.924Z,1.70
2022-11-16T01:59:12.195Z,1.60
2022-11-16T02:01:39.398Z,1.60
2022-11-16T02:04:06.780Z,1.60
2022-11-16T02:06:54.994Z,1.60
2022-11-16T02:09:56.164Z,1.60
2022-11-16T02:12:45.176Z,1.70
2022-11-16T02:15:24.510Z,1.70
2022-11-16T02:17:51.661Z,1.70
2022-11-16T02:20:27.286Z,1.80
2022-11-16T02:23:19.028Z,1.70
2022-11-16T02:26:04.047Z,1.60
2022-11-16T02:28:34.340Z,1.60
2022-11-16T02:31:06.626Z,1.50
2022-11-16T02:33:41.295Z,1.50
2022-11-16T02:36:14.415Z,1.50
2022-11-16T02:38:50.900Z,1.40
2022-11-16T02:41:21.941Z,1.40
2022-11-16T02:44:01.816Z,1.40
2022-11-16T02:46:37.645Z,1.40
2022-11-16T02:49:09.795Z,1.40
2022-11-16T02:51:38.688Z,1.50
2022-11-16T02:54:13.205Z,1.40
2022-11-16T02:56:48.627Z,1.40
2022-11-16T02:59:17.757Z,1.40
2022-11-16T03:01:52.292Z,1.30
2022-11-16T03:04:36.050Z,1.30
2022-11-16T03:07:05.720Z,1.40
2022-11-16T03:09:37.015Z,1.40
2022-11-16T03:12:10.646Z,1.30
2022-11-16T03:15:09.560Z,1.30
2022-11-16T03:17:46.363Z,1.30
2022-11-16T03:20:17.978Z,1.30
2022-11-16T03:22:48.401Z,1.40
2022-11-16T03:25:20.597Z,1.30
2022-11-16T03:27:54.624Z,1.30
2022-11-16T03:30:24.004Z,1.40
2022-11-16T03:33:13.255Z,1.40
2022-11-16T03:36:01.869Z,1.40
2022-11-16T03:38:30.321Z,1.40
2022-11-16T03:41:02.553Z,1.40
2022-11-16T03:43:32.205Z,1.40
2022-11-16T03:45:59.696Z,1.40
2022-11-16T03:48:34.769Z,1.40
2022-11-16T03:51:03.130Z,1.40
2022-11-16T03:53:30.379Z,1.40
2022-11-16T03:55:57.731Z,1.40
2022-11-16T03:58:25.005Z,1.40
2022-11-16T04:00:53.062Z,1.40
2022-11-16T04:03:20.947Z,1.40
2022-11-16T04:06:07.146Z,1.40
2022-11-16T04:08:52.904Z,1.40
2022-11-16T04:11:40.735Z,1.30
2022-11-16T04:14:35.940Z,1.30
2022-11-16T04:17:21.624Z,1.30
2022-11-16T04:20:07.500Z,1.40
2022-11-16T04:23:05.758Z,1.30
2022-11-16T04:25:35.201Z,1.30
2022-11-16T04:28:16.733Z,1.30
2022-11-16T04:31:07.867Z,1.30
2022-11-16T04:33:54.079Z,1.20
2022-11-16T04:36:39.876Z,1.20
2022-11-16T04:39:07.151Z,1.20
2022-11-16T04:41:53.749Z,1.20
2022-11-16T04:44:22.843Z,1.20
2022-11-16T04:47:08.207Z,1.20
2022-11-16T04:49:35.552Z,1.20
2022-11-16T04:52:02.742Z,1.20
2022-11-16T04:54:29.885Z,1.10
2022-11-16T04:56:56.996Z,1.20
2022-11-16T04:59:24.276Z,1.10
2022-11-16T05:02:09.672Z,1.10
2022-11-16T05:04:41.745Z,1.10
2022-11-16T05:07:12.158Z,1.20
2022-11-16T05:09:44.636Z,1.20
2022-11-16T05:12:21.819Z,1.20
2022-11-16T05:14:48.996Z,1.20
2022-11-16T05:17:17.897Z,1.20
2022-11-16T05:20:03.607Z,1.20
2022-11-16T05:22:30.932Z,1.20
2022-11-16T05:24:58.384Z,1.20
2022-11-16T05:27:27.048Z,1.20
2022-11-16T05:29:55.211Z,1.20
2022-11-16T05:32:23.812Z,1.20
2022-11-16T05:34:51.385Z,1.20
2022-11-16T05:37:21.200Z,1.20
2022-11-16T05:39:48.977Z,1.20
2022-11-16T05:42:16.569Z,1.20
2022-11-16T05:44:43.823Z,1.20
2022-11-16T05:47:11.342Z,1.20
2022-11-16T05:49:38.584Z,1.20
2022-11-16T05:52:05.855Z,1.20
2022-11-16T05:54:33.983Z,1.10
2022-11-16T05:57:01.210Z,1.10
2022-11-16T05:59:30.181Z,1.10
2022-11-16T06:01:58.021Z,1.10
2022-11-16T06:04:25.289Z,1.10
2022-11-16T06:06:52.657Z,1.10
2022-11-16T06:09:19.947Z,1.20
2022-11-16T06:11:47.268Z,1.20
2022-11-16T06:14:14.496Z,1.20
2022-11-16T06:16:41.912Z,1.20
2022-11-16T06:19:09.159Z,1.10
2022-11-16T06:21:36.473Z,1.10
2022-11-16T06:24:09.239Z,1.10
2022-11-16T06:26:37.185Z,1.10
2022-11-16T06:29:04.965Z,1.20
2022-11-16T06:31:32.315Z,1.20
2022-11-16T06:33:59.708Z,1.20
2022-11-16T06:36:27.061Z,1.20
2022-11-16T06:38:54.208Z,1.30
2022-11-16T06:41:21.745Z,1.30
2022-11-16T06:43:48.863Z,1.30
2022-11-16T06:46:16.064Z,1.40
2022-11-16T06:48:43.375Z,1.40
2022-11-16T06:51:10.518Z,1.30
2022-11-16T06:53:37.847Z,1.40
2022-11-16T06:56:06.710Z,1.30
2022-11-16T06:58:34.881Z,1.40
2022-11-16T07:01:10.153Z,1.30
2022-11-16T07:03:37.583Z,1.40
2022-11-16T07:06:09.213Z,1.50
2022-11-16T07:08:36.737Z,1.50
2022-11-16T07:11:09.218Z,1.50
2022-11-16T07:13:38.323Z,1.60
2022-11-16T07:16:08.261Z,1.60
2022-11-16T07:18:37.317Z,1.60
2022-11-16T07:21:08.163Z,1.60
2022-11-16T07:23:36.074Z,1.60
2022-11-16T07:26:07.773Z,1.60
2022-11-16T07:28:35.613Z,1.60
2022-11-16T07:31:08.854Z,1.50
2022-11-16T07:33:36.515Z,1.60
2022-11-16T07:36:10.032Z,1.50
2022-11-16T07:38:37.390Z,1.70
2022-11-16T07:41:07.331Z,1.70
2022-11-16T07:43:35.533Z,1.80
2022-11-16T07:46:28.259Z,1.80
2022-11-16T07:48:51.094Z,1.80
2022-11-16T07:51:19.804Z,1.90
2022-11-16T07:53:47.021Z,1.90
2022-11-16T07:56:14.266Z,1.90
2022-11-16T07:58:41.352Z,2.00
2022-11-16T08:01:15.041Z,2.00
2022-11-16T08:03:43.920Z,2.00
2022-11-16T08:06:27.370Z,2.00
2022-11-16T08:08:58.720Z,2.10
2022-11-16T08:11:26.339Z,2.10
2022-11-16T08:13:53.801Z,2.00
2022-11-16T08:16:24.178Z,2.10
2022-11-16T08:18:54.812Z,2.00
2022-11-16T08:21:22.240Z,1.90
2022-11-16T08:23:55.234Z,2.00
2022-11-16T08:26:32.924Z,2.00
2022-11-16T08:29:00.255Z,2.00
2022-11-16T08:31:29.170Z,1.90
2022-11-16T08:33:57.581Z,1.90
2022-11-16T08:36:25.802Z,2.00
2022-11-16T08:38:55.496Z,1.90
2022-11-16T08:41:23.275Z,2.00
2022-11-16T08:43:54.178Z,2.10
2022-11-16T08:46:22.217Z,2.10
2022-11-16T08:49:10.966Z,2.20
2022-11-16T08:51:38.305Z,2.20
2022-11-16T08:54:08.571Z,2.30
2022-11-16T08:56:35.746Z,2.30
2022-11-16T08:59:03.313Z,2.40
2022-11-16T09:01:32.657Z,2.30
2022-11-16T09:04:00.787Z,2.30
2022-11-16T09:06:28.617Z,2.20
2022-11-16T09:08:56.749Z,2.30
2022-11-16T09:11:26.011Z,2.30
2022-11-16T09:14:10.871Z,2.30
2022-11-16T09:16:38.715Z,2.30
2022-11-16T09:19:06.124Z,2.40
2022-11-16T09:21:35.534Z,2.50
2022-11-16T09:24:03.117Z,2.30
2022-11-16T09:26:30.230Z,2.30
2022-11-16T09:29:03.333Z,2.40
2022-11-16T09:31:34.959Z,2.40
2022-11-16T09:34:03.043Z,2.40
2022-11-16T09:36:30.631Z,2.50
2022-11-16T09:42:17.174Z,2.50
2022-11-16T09:44:47.380Z,2.40
2022-11-16T09:47:19.212Z,2.40
2022-11-16T09:49:58.374Z,2.40
2022-11-16T09:52:46.613Z,2.30
2022-11-16T09:55:35.302Z,2.30
2022-11-16T09:58:07.960Z,2.30
2022-11-16T10:00:37.262Z,2.30
2022-11-16T10:03:06.282Z,2.30
2022-11-16T10:05:45.917Z,2.30
2022-11-16T10:08:16.512Z,2.20
2022-11-16T10:10:58.055Z,2.20
2022-11-16T10:14:04.035Z,2.30
2022-11-16T10:16:57.465Z,2.40
2022-11-16T10:19:45.461Z,2.30
2022-11-16T10:23:04.855Z,2.40
2022-11-16T10:25:48.869Z,2.40
2022-11-16T10:28:28.963Z,2.30
2022-11-16T10:31:14.877Z,2.40
2022-11-16T10:33:45.849Z,2.40
2022-11-16T10:36:16.696Z,2.30
2022-11-16T10:38:45.599Z,2.30
2022-11-16T10:41:20.844Z,2.20
2022-11-16T10:43:49.130Z,2.20
2022-11-16T10:46:46.878Z,2.20
2022-11-16T10:49:29.412Z,2.20
2022-11-16T10:51:56.515Z,2.30
2022-11-16T10:54:23.700Z,2.30
2022-11-16T10:57:17.459Z,2.30
2022-11-16T10:59:48.301Z,2.30
2022-11-16T11:02:34.895Z,2.30
2022-11-16T11:05:20.973Z,2.30
2022-11-16T11:08:06.435Z,2.40
2022-11-16T11:10:37.643Z,2.30
2022-11-16T11:13:10.902Z,2.30
2022-11-16T11:15:44.975Z,2.30
2022-11-16T11:18:11.952Z,2.20
2022-11-16T11:20:44.671Z,2.30
2022-11-16T11:23:18.860Z,2.30
2022-11-16T11:25:55.120Z,2.20
2022-11-16T11:28:37.061Z,2.20
2022-11-16T11:31:26.000Z,2.20
2022-11-16T11:33:56.950Z,2.10
2022-11-16T11:36:38.741Z,2.10
2022-11-16T11:39:28.688Z,2.10
2022-11-16T11:42:22.117Z,2.20
2022-11-16T11:44:52.240Z,2.20
2022-11-16T11:47:56.273Z,2.20
2022-11-16T11:50:21.372Z,2.20
2022-11-16T11:53:36.153Z,2.20
2022-11-16T11:56:03.702Z,2.20
2022-11-16T11:58:34.189Z,2.30
2022-11-16T12:01:06.938Z,2.20
2022-11-16T12:03:59.278Z,2.20
2022-11-16T12:06:58.310Z,2.20
2022-11-16T12:09:52.052Z,2.20
2022-11-16T12:12:38.403Z,2.10
2022-11-16T12:15:26.409Z,2.10
2022-11-16T12:18:24.030Z,2.10
2022-11-16T12:21:14.094Z,2.00
2022-11-16T12:24:02.721Z,2.00
2022-11-16T12:26:43.077Z,2.00
2022-11-16T12:30:08.427Z,2.00
2022-11-16T12:32:38.533Z,2.00
2022-11-16T12:35:18.006Z,2.00
2022-11-16T12:38:02.422Z,2.00
2022-11-16T12:40:32.291Z,2.00
2022-11-16T12:43:19.948Z,1.90
2022-11-16T12:46:21.598Z,1.90
2022-11-16T12:49:16.739Z,1.90
2022-11-16T12:51:52.729Z,1.80
2022-11-16T12:54:32.765Z,1.80
2022-11-16T12:57:06.480Z,1.80
2022-11-16T13:00:05.245Z,1.80
2022-11-16T13:03:02.581Z,1.80
2022-11-16T13:05:48.417Z,1.80
2022-11-16T13:08:24.560Z,1.80
2022-11-16T13:11:06.537Z,1.70
2022-11-16T13:13:36.663Z,1.80
2022-11-16T13:16:06.751Z,1.70
2022-11-16T13:18:37.854Z,1.70
2022-11-16T13:21:19.397Z,1.60
2022-11-16T13:24:44.537Z,1.70
2022-11-16T13:27:37.492Z,1.60
2022-11-16T13:30:13.082Z,1.60
2022-11-16T13:33:20.162Z,1.50
2022-11-16T13:35:47.328Z,1.50
2022-11-16T13:38:14.623Z,1.50
2022-11-16T13:40:42.202Z,1.50
2022-11-16T13:43:12.189Z,1.50
2022-11-16T13:45:58.531Z,1.50
2022-11-16T13:48:37.665Z,1.50
2022-11-16T13:51:08.218Z,1.50
2022-11-16T13:56:48.812Z,1.50
2022-11-16T13:59:23.225Z,1.50
2022-11-16T14:01:59.789Z,1.50
2022-11-16T14:04:36.319Z,1.50
2022-11-16T14:07:03.537Z,1.50
2022-11-16T14:09:45.477Z,1.50
2022-11-16T14:12:52.970Z,1.50
2022-11-16T14:15:30.813Z,1.40
2022-11-16T14:18:01.552Z,1.40
2022-11-16T14:20:57.465Z,1.40
2022-11-16T14:23:42.501Z,1.40
2022-11-16T14:26:19.616Z,1.30
2022-11-16T14:28:58.819Z,1.30
2022-11-16T14:31:30.049Z,1.40
2022-11-16T14:34:00.468Z,1.40
2022-11-16T14:36:44.700Z,1.40
2022-11-16T14:39:41.520Z,1.30
2022-11-16T14:42:16.958Z,1.30
2022-11-16T14:44:44.624Z,1.30
2022-11-16T14:47:26.800Z,1.30
2022-11-16T14:49:55.514Z,1.30
2022-11-16T14:52:47.894Z,1.30
2022-11-16T14:55:21.764Z,1.20
2022-11-16T14:57:49.177Z,1.20
2022-11-16T15:00:22.193Z,1.30
2022-11-16T15:03:00.884Z,1.20
2022-11-16T15:05:34.790Z,1.20
2022-11-16T15:08:14.905Z,1.20
2022-11-16T15:10:51.026Z,1.20
2022-11-16T15:13:22.592Z,1.20
2022-11-16T15:15:50.514Z,1.20
2022-11-16T15:18:20.860Z,1.20
2022-11-16T15:20:51.009Z,1.10
2022-11-16T15:23:19.900Z,1.10
2022-11-16T15:25:54.246Z,1.10
2022-11-16T15:28:22.656Z,1.10
2022-11-16T15:30:52.986Z,1.10
2022-11-16T15:33:33.503Z,1.10
2022-11-16T15:36:01.069Z,1.10
2022-11-16T15:38:31.570Z,1.00
2022-11-16T15:41:03.185Z,1.10
2022-11-16T15:43:35.947Z,1.10
2022-11-16T15:46:08.731Z,1.10
2022-11-16T15:48:39.149Z,1.10
2022-11-16T15:51:24.414Z,1.10
2022-11-16T15:53:53.894Z,1.00
2022-11-16T15:56:27.166Z,1.00
2022-11-16T15:58:56.724Z,1.10
2022-11-16T16:01:25.870Z,1.10
2022-11-16T16:04:01.158Z,1.00
2022-11-16T16:06:55.359Z,1.00
2022-11-16T16:09:29.838Z,1.00
2022-11-16T16:12:27.127Z,1.00
2022-11-16T16:15:21.881Z,1.00
2022-11-16T16:17:49.150Z,1.00
2022-11-16T16:20:21.549Z,1.00
2022-11-16T16:22:49.080Z,1.00
2022-11-16T16:25:32.446Z,1.00
2022-11-16T16:27:59.692Z,0.90
2022-11-16T16:30:29.560Z,0.90
2022-11-16T16:32:57.256Z,0.90
2022-11-16T16:35:26.259Z,0.80
2022-11-16T16:38:01.310Z,0.80
2022-11-16T16:40:29.560Z,0.70
2022-11-16T16:42:58.132Z,0.70
2022-11-16T16:45:39.076Z,0.70
2022-11-16T16:48:07.345Z,0.70
2022-11-16T16:50:34.500Z,0.70
2022-11-16T16:53:02.063Z,0.70
2022-11-16T16:55:32.877Z,0.60
2022-11-16T16:58:03.214Z,0.60
2022-11-16T17:00:31.007Z,0.60
2022-11-16T17:03:01.346Z,0.60
2022-11-16T17:05:29.949Z,0.60
2022-11-16T17:07:57.222Z,0.60
2022-11-16T17:10:24.475Z,0.60
2022-11-16T17:12:55.855Z,0.50
2022-11-16T17:15:23.655Z,0.50
2022-11-16T17:17:51.152Z,0.50
2022-11-16T17:20:18.355Z,0.50
2022-11-16T17:22:46.153Z,0.50
2022-11-16T17:25:13.523Z,0.40
2022-11-16T17:27:41.167Z,0.40
2022-11-16T17:30:09.425Z,0.40
2022-11-16T17:32:36.600Z,0.50
2022-11-16T17:35:03.889Z,0.50
2022-11-16T17:37:31.121Z,0.40
2022-11-16T17:39:58.580Z,0.40
2022-11-16T17:42:25.771Z,0.50
2022-11-16T17:44:54.104Z,0.50
2022-11-16T17:47:21.655Z,0.40
2022-11-16T17:49:48.746Z,0.50
2022-11-16T17:52:15.926Z,0.50
2022-11-16T17:54:43.118Z,0.50
2022-11-16T17:57:10.335Z,0.50
2022-11-16T17:59:37.462Z,0.50
2022-11-16T18:02:04.811Z,0.50
2022-11-16T18:04:31.947Z,0.50
2022-11-16T18:07:01.043Z,0.50
2022-11-16T18:09:28.618Z,0.50
2022-11-16T18:11:55.968Z,0.50
2022-11-16T18:14:23.320Z,0.50
2022-11-16T18:16:50.532Z,0.50
2022-11-16T18:19:19.739Z,0.50
2022-11-16T18:21:49.094Z,0.50
2022-11-16T18:24:17.273Z,0.40
2022-11-16T18:26:44.947Z,0.40
2022-11-16T18:29:15.576Z,0.40
2022-11-16T18:31:42.828Z,0.50
2022-11-16T18:34:13.501Z,0.50
2022-11-16T18:36:40.701Z,0.50
2022-11-16T18:39:08.406Z,0.50
2022-11-16T18:41:35.590Z,0.50
2022-11-16T18:44:03.241Z,0.50
2022-11-16T18:46:32.446Z,0.50
2022-11-16T18:49:00.223Z,0.60
2022-11-16T18:51:28.808Z,0.60
2022-11-16T18:53:56.480Z,0.40
2022-11-16T18:56:25.078Z,0.40
2022-11-16T18:58:53.913Z,0.40
2022-11-16T19:01:23.864Z,0.30
2022-11-16T19:03:52.070Z,0.40
2022-11-16T19:06:19.819Z,0.30
2022-11-16T19:08:53.954Z,0.30
2022-11-16T19:11:23.522Z,0.20
2022-11-16T19:13:57.949Z,0.20
2022-11-16T19:16:25.650Z,0.10
2022-11-16T19:18:53.133Z,0.10
2022-11-16T19:21:22.138Z,0.10
2022-11-16T19:23:51.851Z,0.10
2022-11-16T19:26:20.436Z,0.10
2022-11-16T19:28:48.899Z,0.00
2022-11-16T19:31:24.596Z,0.00
2022-11-16T19:34:00.106Z,0.00
2022-11-16T19:36:28.921Z,0.00
2022-11-16T19:38:56.519Z,0.00
2022-11-16T19:41:24.334Z,0.00
2022-11-16T19:43:57.396Z,-0.10
2022-11-16T19:46:25.614Z,-0.10
2022-11-16T19:48:53.575Z,-0.10
2022-11-16T19:51:23.234Z,-0.10
2022-11-16T19:53:50.583Z,-0.10
2022-11-16T19:56:20.050Z,0.00
2022-11-16T19:58:47.819Z,-0.10
2022-11-16T20:01:20.209Z,0.00
2022-11-16T20:03:49.640Z,-0.10
2022-11-16T20:06:22.418Z,-0.10
2022-11-16T20:08:52.139Z,-0.10
2022-11-16T20:11:21.873Z,0.00
2022-11-16T20:13:50.726Z,-0.10
2022-11-16T20:16:20.347Z,-0.10
2022-11-16T20:18:48.199Z,-0.10
2022-11-16T20:21:22.888Z,-0.10
2022-11-16T20:23:54.199Z,-0.10
2022-11-16T20:26:22.126Z,-0.10
2022-11-16T20:28:52.598Z,0.00
2022-11-16T20:31:22.584Z,-0.10
2022-11-16T20:33:51.688Z,0.00
2022-11-16T20:36:19.631Z,-0.10
2022-11-16T20:38:46.839Z,-0.10
2022-11-16T20:41:25.463Z,-0.10
2022-11-16T20:43:57.715Z,-0.20
2022-11-16T20:46:27.593Z,-0.10
2022-11-16T20:48:57.269Z,-0.10
2022-11-16T20:51:24.682Z,-0.20
2022-11-16T20:53:52.390Z,-0.20
2022-11-16T20:56:20.517Z,-0.20
2022-11-16T20:58:48.813Z,-0.10
2022-11-16T21:01:21.448Z,-0.10
2022-11-16T21:03:48.673Z,-0.10
2022-11-16T21:06:16.048Z,-0.10
2022-11-16T21:08:43.154Z,-0.20
2022-11-16T21:11:18.379Z,-0.20
2022-11-16T21:14:05.403Z,-0.20
2022-11-16T21:16:33.894Z,-0.20
2022-11-16T21:19:01.354Z,-0.20
2022-11-16T21:21:29.176Z,-0.10
2022-11-16T21:23:56.449Z,-0.20
2022-11-16T21:26:26.564Z,-0.20
2022-11-16T21:28:54.541Z,-0.20
2022-11-16T21:31:33.168Z,-0.20
2022-11-16T21:34:01.132Z,-0.20
2022-11-16T21:36:30.404Z,-0.30
2022-11-16T21:38:58.298Z,-0.30
2022-11-16T21:41:26.293Z,-0.30
2022-11-16T21:43:53.857Z,-0.30
2022-11-16T21:46:26.367Z,-0.30
2022-11-16T21:48:55.559Z,-0.30
2022-11-16T21:51:25.358Z,-0.30
2022-11-16T21:53:52.607Z,-0.40
2022-11-16T21:56:22.497Z,-0.30
2022-11-16T21:58:55.840Z,-0.30
2022-11-16T22:01:24.396Z,-0.30
2022-11-16T22:04:12.033Z,-0.30
2022-11-16T22:06:57.858Z,-0.30
2022-11-16T22:09:25.093Z,-0.20
2022-11-16T22:11:52.175Z,-0.20
2022-11-16T22:14:19.313Z,-0.10
2022-11-16T22:16:46.397Z,-0.10
2022-11-16T22:19:13.479Z,-0.10
2022-11-16T22:21:40.638Z,-0.10
2022-11-16T22:24:08.163Z,-0.10
2022-11-16T22:26:35.758Z,0.00
2022-11-16T22:29:02.947Z,0.00
2022-11-16T22:31:30.071Z,0.00
2022-11-16T22:33:57.205Z,0.00
2022-11-16T22:36:24.381Z,0.00
2022-11-16T22:38:51.620Z,0.00
2022-11-16T22:41:18.718Z,0.00
2022-11-16T22:43:45.854Z,0.00
2022-11-16T22:46:12.986Z,0.00
2022-11-16T22:48:41.353Z,0.00
2022-11-16T22:51:26.595Z,0.00
2022-11-16T22:54:01.858Z,0.10
2022-11-16T22:56:31.069Z,0.00
2022-11-16T22:58:58.339Z,0.00
2022-11-16T23:01:25.750Z,-0.10
2022-11-16T23:03:52.956Z,-0.10
2022-11-16T23:06:20.426Z,-0.10
2022-11-16T23:08:47.861Z,-0.20
2022-11-16T23:11:34.894Z,-0.20
2022-11-16T23:14:21.399Z,-0.30
2022-11-16T23:16:49.091Z,-0.30
2022-11-16T23:19:36.950Z,-0.30
2022-11-16T23:22:24.266Z,-0.30
2022-11-16T23:25:10.519Z,-0.30
2022-11-16T23:28:19.251Z,-0.30
2022-11-16T23:30:46.397Z,-0.30
2022-11-16T23:33:13.906Z,-0.30
2022-11-16T23:35:41.071Z,-0.30
2022-11-16T23:38:08.495Z,-0.30
2022-11-16T23:40:40.351Z,-0.30
2022-11-16T23:43:29.157Z,-0.30
2022-11-16T23:45:56.387Z,-0.40
2022-11-16T23:48:23.603Z,-0.30
2022-11-16T23:50:50.849Z,-0.40
2022-11-16T23:53:17.885Z,-0.40
2022-11-16T23:55:44.969Z,-0.40
2022-11-16T23:58:14.418Z,-0.60
